CheckWX is a tool to help pilots better visualize weather data.  It is not intended as a substitute for an official pre-flight weather briefing.

15:11:05 UTC

KSQL METAR
San Carlos Airport
San Carlos, California, USA
Current

16 mins ago

KSQL 131455Z AUTO 14003KT 1/4SM FG OVC002 13/13 A3023 RMK AO2
Observed
Dec-13 @ 14:55 UTC
Wind
  • 140° at 3 KTS
Visibility
1/4 SM
Flight Rules
LIFR
Conditions
Fog
Cloud Levels
  • Overcast at 200' AGL
Temperature
13°C / 55°F
Dewpoint
13°C / 55°F
Humidity
100%
Altimeter
30.23" Hg
Pressure
1023.72 hPa
Previous

31 mins ago

KSQL 131440Z AUTO 00000KT 1/4SM FG OVC002 13/13 A3023 RMK AO2
Observed
Dec-13 @ 14:40 UTC
Visibility
1/4 SM
Flight Rules
LIFR
Conditions
Fog
Cloud Levels
  • Overcast at 200' AGL
Temperature
13°C / 55°F
Dewpoint
13°C / 55°F
Humidity
100%
Altimeter
30.23" Hg
Pressure
1023.72 hPa
Previous

56 mins ago

KSQL 131415Z AUTO 05003KT 3/4SM BR OVC006 13/13 A3024 RMK AO2
Observed
Dec-13 @ 14:15 UTC
Wind
  • 050° at 3 KTS
Visibility
3/4 SM
Flight Rules
LIFR
Conditions
Mist
Cloud Levels
  • Overcast at 600' AGL
Temperature
13°C / 55°F
Dewpoint
13°C / 55°F
Humidity
100%
Altimeter
30.24" Hg
Pressure
1024.02 hPa